Time;durP1;ratioP1;P1;durP2;ratioP2;P2;SDS_P1;SDS_P2;PMS_P1;PMS_P2;Temp;Humidity;BMP_temperature;BMP_pressure;BME280_temperature;BME280_humidity;BME280_pressure;Samples;Min_cycle;Max_cycle;Signal;HPM_P1;HPM_P2
2022/09/01 00:02:26;;;;;;;13.77;6.80;;;;;;;12.98;100.00;101371.38;5005689;28;20057;-85
2022/09/01 00:04:57;;;;;;;14.32;6.63;;;;;;;12.95;100.00;101369.81;5019276;28;20040;-83
2022/09/01 00:07:25;;;;;;;11.30;6.78;;;;;;;12.94;100.00;101356.69;4990720;28;20092;-84
2022/09/01 00:09:51;;;;;;;12.90;7.03;;;;;;;12.88;100.00;101355.44;5015036;28;20033;-83
2022/09/01 00:12:21;;;;;;;10.13;6.93;;;;;;;12.85;100.00;101350.41;5018607;28;20603;-85
2022/09/01 00:14:47;;;;;;;14.90;7.40;;;;;;;12.82;100.00;101348.00;4974749;28;20072;-83
2022/09/01 00:17:13;;;;;;;12.30;7.30;;;;;;;12.82;100.00;101348.84;4994957;28;20038;-84
2022/09/01 00:19:39;;;;;;;14.00;7.43;;;;;;;12.82;100.00;101348.00;4980586;28;20459;-85
2022/09/01 00:22:06;;;;;;;12.25;6.85;;;;;;;12.84;100.00;101349.53;4985348;28;20046;-85
2022/09/01 00:24:32;;;;;;;15.95;7.90;;;;;;;12.82;100.00;101343.53;5008583;28;20473;-83
2022/09/01 00:26:58;;;;;;;11.43;7.70;;;;;;;12.80;100.00;101340.19;4959105;28;20463;-84
2022/09/01 00:29:24;;;;;;;17.65;8.82;;;;;;;12.78;100.00;101336.84;5005972;28;20114;-87
2022/09/01 00:31:51;;;;;;;17.90;8.82;;;;;;;12.79;100.00;101333.19;4994669;28;20046;-85
2022/09/01 00:34:17;;;;;;;15.00;8.20;;;;;;;12.78;100.00;101335.03;4988302;28;20087;-84
2022/09/01 00:36:43;;;;;;;16.77;9.07;;;;;;;12.77;100.00;101332.50;5004273;28;20502;-83
2022/09/01 00:39:09;;;;;;;15.50;8.90;;;;;;;12.78;100.00;101334.19;5014914;28;20508;-83
2022/09/01 00:41:37;;;;;;;20.02;9.18;;;;;;;12.78;100.00;101324.41;4999992;28;20057;-84
2022/09/01 00:44:10;;;;;;;15.02;9.38;;;;;;;12.81;100.00;101327.75;5014430;28;20061;-84
2022/09/01 00:46:40;;;;;;;13.23;8.75;;;;;;;12.79;100.00;101327.88;4985269;28;20026;-86
2022/09/01 00:49:29;;;;;;;13.60;8.60;;;;;;;12.75;100.00;101329.16;4971451;28;20045;-84
2022/09/01 00:52:03;;;;;;;16.45;9.63;;;;;;;12.77;100.00;101330.69;4984798;28;20053;-81
2022/09/01 00:54:34;;;;;;;15.20;9.27;;;;;;;12.80;100.00;101326.94;4961740;28;20037;-86
2022/09/01 00:57:03;;;;;;;18.33;8.88;;;;;;;12.80;100.00;101328.72;5015614;28;20037;-84
2022/09/01 00:59:29;;;;;;;11.90;9.43;;;;;;;12.81;100.00;101317.97;5002978;28;20489;-84
2022/09/01 01:01:56;;;;;;;14.13;9.68;;;;;;;12.85;100.00;101318.56;4980818;28;20455;-83
2022/09/01 01:04:23;;;;;;;19.80;9.40;;;;;;;12.86;100.00;101318.41;5002811;28;20034;-84
2022/09/01 01:07:00;;;;;;;13.90;8.98;;;;;;;12.89;100.00;101319.94;4983239;28;20065;-84
2022/09/01 01:09:30;;;;;;;13.77;8.35;;;;;;;12.94;100.00;101330.16;5000989;28;20038;-84
2022/09/01 01:11:59;;;;;;;16.08;8.98;;;;;;;12.99;100.00;101325.28;4950837;28;20042;-84
2022/09/01 01:14:27;;;;;;;13.43;8.60;;;;;;;13.02;100.00;101330.28;4986444;28;20451;-84
2022/09/01 01:16:54;;;;;;;13.13;9.43;;;;;;;13.06;100.00;101321.06;4966257;28;20030;-84
2022/09/01 01:23:01;;;;;;;13.90;8.88;;;;;;;12.96;100.00;101307.81;4988840;28;20169;-84
2022/09/01 01:25:38;;;;;;;15.45;9.10;;;;;;;12.90;100.00;101317.16;4988235;28;20086;-84
2022/09/01 01:28:07;;;;;;;18.23;9.52;;;;;;;12.93;100.00;101308.09;5002443;28;20081;-84
2022/09/01 01:30:36;;;;;;;15.02;8.98;;;;;;;12.94;100.00;101307.09;5014853;28;20048;-84
2022/09/01 01:33:03;;;;;;;12.95;8.07;;;;;;;12.92;100.00;101297.59;4990645;28;20057;-85
2022/09/01 01:35:30;;;;;;;12.68;8.93;;;;;;;12.88;100.00;101300.53;5001417;28;20078;-84
2022/09/01 01:37:57;;;;;;;16.00;8.57;;;;;;;12.87;100.00;101298.00;4972439;28;20133;-84
2022/09/01 01:40:23;;;;;;;12.55;8.15;;;;;;;12.89;100.00;101304.03;4999901;28;20109;-84
2022/09/01 01:42:51;;;;;;;10.98;8.13;;;;;;;12.93;100.00;101307.25;5001265;28;20493;-84
2022/09/01 01:45:20;;;;;;;14.35;8.35;;;;;;;12.99;100.00;101296.06;4968228;28;20038;-86
2022/09/01 01:47:55;;;;;;;14.93;7.78;;;;;;;13.02;100.00;101303.75;4974278;28;20388;-84
2022/09/01 01:50:28;;;;;;;;;;;;;;;12.96;100.00;101291.91;5003478;28;20550;-84
2022/09/01 01:52:56;;;;;;;20.02;8.30;;;;;;;13.04;100.00;101293.84;5000587;28;19982;-84
2022/09/01 01:55:25;;;;;;;20.92;8.77;;;;;;;13.09;100.00;101296.09;4999626;28;20038;-85
2022/09/01 01:57:53;;;;;;;17.00;8.65;;;;;;;13.13;100.00;101289.50;4999008;28;20130;-85
2022/09/01 02:00:23;;;;;;;15.68;9.73;;;;;;;13.19;100.00;101293.41;4992232;28;20101;-86
2022/09/01 02:02:53;;;;;;;11.85;7.45;;;;;;;13.25;100.00;101299.00;5022696;28;20112;-85
2022/09/01 02:05:23;;;;;;;15.15;7.55;;;;;;;13.28;100.00;101296.06;4988131;28;20092;-85
2022/09/01 02:07:54;;;;;;;10.80;7.20;;;;;;;13.31;100.00;101300.28;5010658;28;20050;-84
2022/09/01 02:10:23;;;;;;;14.55;8.00;;;;;;;13.34;100.00;101301.78;4988187;28;20030;-86
2022/09/01 02:12:49;;;;;;;16.80;7.70;;;;;;;13.34;100.00;101301.78;5008351;28;20117;-84
2022/09/01 02:15:16;;;;;;;15.38;8.02;;;;;;;13.33;100.00;101300.94;4985937;28;20041;-84
2022/09/01 02:17:43;;;;;;;13.18;7.55;;;;;;;13.27;100.00;101298.84;4978043;28;20095;-84
2022/09/01 02:20:09;;;;;;;17.80;7.30;;;;;;;13.24;100.00;101294.69;4984848;28;20504;-84
2022/09/01 02:22:36;;;;;;;11.85;7.05;;;;;;;13.23;100.00;101300.97;4964199;28;20165;-84
2022/09/01 02:25:04;;;;;;;10.20;6.78;;;;;;;13.18;100.00;101292.59;5001800;28;20026;-84
2022/09/01 02:27:35;;;;;;;13.38;7.20;;;;;;;13.12;100.00;101295.81;4993490;28;20124;-85
2022/09/01 02:30:03;;;;;;;14.65;7.80;;;;;;;13.03;100.00;101297.47;4999532;28;20038;-85
2022/09/01 02:32:29;;;;;;;10.85;7.15;;;;;;;12.96;100.00;101296.34;5009521;28;20056;-86
2022/09/01 02:35:00;;;;;;;15.10;7.40;;;;;;;12.88;100.00;101286.44;5029387;28;20037;-87
2022/09/01 02:37:26;;;;;;;12.57;6.95;;;;;;;12.83;100.00;101286.00;5028029;28;20037;-86
2022/09/01 02:39:52;;;;;;;11.20;6.82;;;;;;;12.78;100.00;101283.78;4986456;28;20034;-87
2022/09/01 02:42:25;;;;;;;10.93;6.80;;;;;;;12.78;100.00;101281.13;4989947;28;20069;-84
2022/09/01 02:44:53;;;;;;;13.90;7.20;;;;;;;12.80;100.00;101288.94;5002595;28;20093;-84
2022/09/01 02:47:22;;;;;;;15.88;6.93;;;;;;;12.78;100.00;101284.63;4978095;28;20034;-84
2022/09/01 02:49:49;;;;;;;14.77;6.57;;;;;;;12.81;100.00;101278.19;5011603;28;20622;-85
2022/09/01 02:52:19;;;;;;;12.63;6.70;;;;;;;12.87;100.00;101290.91;4993649;28;20073;-84
2022/09/01 02:54:49;;;;;;;15.32;7.30;;;;;;;12.90;100.00;101282.66;4990253;28;20058;-85
2022/09/01 02:57:16;;;;;;;11.95;7.03;;;;;;;12.92;100.00;101277.22;4999039;28;20401;-84
2022/09/01 02:59:42;;;;;;;8.88;6.03;;;;;;;12.99;100.00;101280.16;4991667;28;20030;-83
2022/09/01 03:02:08;;;;;;;12.25;6.80;;;;;;;13.05;100.00;101273.44;4977047;28;20068;-84
2022/09/01 03:04:35;;;;;;;13.57;6.93;;;;;;;13.13;100.00;101284.19;5010564;28;20583;-84
2022/09/01 03:07:05;;;;;;;12.02;6.60;;;;;;;13.10;100.00;101272.06;4988851;28;20092;-84
2022/09/01 03:09:31;;;;;;;11.88;6.70;;;;;;;13.12;100.00;101277.22;4990967;28;20038;-84
2022/09/01 03:11:58;;;;;;;12.38;6.82;;;;;;;13.19;100.00;101277.47;4976621;28;20026;-84
2022/09/01 03:14:24;;;;;;;10.25;7.15;;;;;;;13.17;100.00;101271.50;4991537;28;20045;-84
2022/09/01 03:16:51;;;;;;;13.30;7.72;;;;;;;13.11;100.00;101265.75;5025157;28;20042;-84
2022/09/01 03:19:18;;;;;;;13.07;6.70;;;;;;;13.06;100.00;101268.00;4974691;28;20037;-84
2022/09/01 03:21:46;;;;;;;13.15;7.07;;;;;;;13.02;100.00;101263.94;5005050;28;20034;-85
2022/09/01 03:24:17;;;;;;;11.30;6.65;;;;;;;12.99;100.00;101265.09;4985819;28;20400;-85
2022/09/01 03:26:45;;;;;;;13.43;6.88;;;;;;;12.98;100.00;101257.25;5014596;28;20026;-85
2022/09/01 03:29:12;;;;;;;14.18;6.88;;;;;;;12.97;100.00;101253.75;4970268;28;20103;-84
2022/09/01 03:31:38;;;;;;;13.40;6.95;;;;;;;12.94;100.00;101248.72;4993243;28;20033;-85
2022/09/01 03:34:05;;;;;;;14.07;7.32;;;;;;;12.95;100.00;101244.28;4966109;28;20037;-86
2022/09/01 03:36:35;;;;;;;12.68;6.88;;;;;;;12.93;100.00;101244.41;4989679;28;20503;-85
2022/09/01 03:39:01;;;;;;;13.57;7.85;;;;;;;12.91;100.00;101243.72;5009066;28;20038;-84
2022/09/01 03:41:30;;;;;;;11.85;6.18;;;;;;;12.91;100.00;101254.31;4968077;28;20149;-86
2022/09/01 03:43:57;;;;;;;9.82;6.63;;;;;;;12.85;100.00;101244.28;5015648;28;20101;-85
2022/09/01 03:46:28;;;;;;;11.52;6.97;;;;;;;12.84;100.00;101235.47;5002393;28;20057;-84
2022/09/01 03:48:59;;;;;;;11.57;5.85;;;;;;;12.82;100.00;101241.91;5000071;28;20085;-85
2022/09/01 03:51:27;;;;;;;15.20;7.20;;;;;;;12.81;100.00;101238.41;5008969;28;20706;-83
2022/09/01 03:53:53;;;;;;;13.00;7.50;;;;;;;12.85;100.00;101241.63;5013781;28;20037;-85
2022/09/01 03:56:21;;;;;;;13.02;7.30;;;;;;;12.87;100.00;101229.88;5005493;28;20039;-84
2022/09/01 03:58:47;;;;;;;13.13;6.70;;;;;;;12.85;100.00;101234.47;5008871;28;20104;-84
2022/09/01 04:01:15;;;;;;;12.65;6.85;;;;;;;12.85;100.00;101231.81;4995563;28;20029;-85
2022/09/01 04:03:45;;;;;;;14.80;7.57;;;;;;;12.84;100.00;101226.66;4992021;28;20038;-85
2022/09/01 04:06:12;;;;;;;11.10;7.03;;;;;;;12.84;100.00;101229.31;4985715;28;20038;-84
2022/09/01 04:08:39;;;;;;;12.52;7.57;;;;;;;12.86;100.00;101224.72;4986490;28;20050;-84
2022/09/01 04:11:17;;;;;;;14.05;7.13;;;;;;;12.87;100.00;101219.25;4988829;28;20034;-84
2022/09/01 04:13:45;;;;;;;14.25;7.90;;;;;;;12.89;100.00;101219.97;5021920;28;20037;-84
2022/09/01 04:19:14;;;;;;;11.07;7.90;;;;;;;12.88;100.00;101217.47;4966551;28;20132;-85
2022/09/01 04:21:42;;;;;;;21.00;8.25;;;;;;;12.92;100.00;101210.88;5015264;28;20034;-85
2022/09/01 04:24:09;;;;;;;10.75;7.55;;;;;;;12.95;100.00;101213.25;4986338;28;20657;-84
2022/09/01 04:26:36;;;;;;;15.73;7.60;;;;;;;12.99;100.00;101209.34;4992404;28;20037;-84
2022/09/01 04:29:03;;;;;;;12.25;7.70;;;;;;;13.05;100.00;101212.41;4964010;28;20034;-85
2022/09/01 04:31:30;;;;;;;15.07;8.18;;;;;;;13.12;100.00;101210.88;4978375;28;20504;-84
2022/09/01 04:33:57;;;;;;;14.25;9.32;;;;;;;13.12;100.00;101208.22;4992770;28;20450;-84
2022/09/01 04:36:32;;;;;;;17.60;8.88;;;;;;;13.17;100.00;101211.25;5008450;28;20066;-84
2022/09/01 04:39:01;;;;;;;18.63;11.20;;;;;;;13.19;100.00;101209.31;5005872;28;20475;-84
2022/09/01 04:41:30;;;;;;;20.08;10.23;;;;;;;13.23;100.00;101209.88;4979595;28;20034;-84
2022/09/01 04:44:03;;;;;;;15.82;10.10;;;;;;;13.22;100.00;101213.50;4974567;28;20042;-85
2022/09/01 04:46:34;;;;;;;17.35;10.90;;;;;;;13.16;100.00;101206.94;4991480;28;20037;-84
2022/09/01 04:49:08;;;;;;;14.27;9.75;;;;;;;13.11;100.00;101209.16;4991779;28;20037;-84
2022/09/01 04:51:42;;;;;;;17.70;9.88;;;;;;;13.09;100.00;101208.50;5007860;28;20038;-85
2022/09/01 04:54:13;;;;;;;16.45;10.18;;;;;;;13.08;100.00;101206.81;5016963;28;20061;-83
2022/09/01 04:56:43;;;;;;;18.52;10.25;;;;;;;13.14;100.00;101215.03;4965227;28;20044;-84
2022/09/01 04:59:15;;;;;;;14.50;8.80;;;;;;;13.15;100.00;101213.25;4969452;28;20882;-85
2022/09/01 05:01:45;;;;;;;12.27;8.50;;;;;;;13.15;100.00;101213.25;4976719;28;20033;-84
2022/09/01 05:04:23;;;;;;;20.92;9.40;;;;;;;13.15;100.00;101218.53;4993691;28;20045;-84
2022/09/01 05:06:59;;;;;;;16.45;9.18;;;;;;;13.08;100.00;101207.66;4963552;28;20048;-83
2022/09/01 05:09:36;;;;;;;17.42;7.53;;;;;;;13.04;100.00;101216.88;4990724;28;20046;-85
2022/09/01 05:16:05;;;;;;;11.93;7.93;;;;;;;12.95;100.00;101221.22;4982959;28;20070;-84
2022/09/01 05:18:31;;;;;;;10.35;7.35;;;;;;;12.96;100.00;101217.59;4967009;28;20539;-84
2022/09/01 05:21:08;;;;;;;16.27;8.25;;;;;;;12.95;100.00;101212.44;4975836;28;20034;-83
2022/09/01 05:23:35;;;;;;;14.75;6.97;;;;;;;12.92;100.00;101215.34;4986294;28;20039;-86
2022/09/01 05:26:05;;;;;;;17.38;7.13;;;;;;;12.85;100.00;101215.91;4985566;28;20034;-84
2022/09/01 05:28:32;;;;;;;10.50;7.40;;;;;;;12.80;100.00;101214.66;4951674;28;20030;-85
2022/09/01 05:31:00;;;;;;;12.77;7.70;;;;;;;12.77;100.00;101215.78;4981481;28;20061;-85
2022/09/01 05:33:26;;;;;;;10.82;7.53;;;;;;;12.78;100.00;101209.50;4974128;28;20066;-84
2022/09/01 05:35:55;;;;;;;15.02;9.23;;;;;;;12.82;100.00;101212.72;4963283;28;20048;-85
2022/09/01 05:38:23;;;;;;;11.65;7.13;;;;;;;12.78;100.00;101214.81;4971677;28;20035;-85
2022/09/01 05:41:01;;;;;;;17.73;8.13;;;;;;;12.70;100.00;101206.69;4985825;28;20045;-82
2022/09/01 05:43:29;;;;;;;14.40;8.80;;;;;;;12.66;100.00;101211.47;4986195;28;20437;-84
2022/09/01 05:45:57;;;;;;;16.98;7.97;;;;;;;12.69;100.00;101208.53;4984329;28;20113;-84
2022/09/01 05:48:24;;;;;;;10.82;8.25;;;;;;;12.70;100.00;101202.25;5000875;28;20486;-84
2022/09/01 05:50:55;;;;;;;13.50;8.55;;;;;;;12.73;100.00;101201.09;4948215;28;20030;-84
2022/09/01 05:53:24;;;;;;;11.30;8.25;;;;;;;12.72;100.00;101200.28;4958683;28;20113;-85
2022/09/01 05:55:56;;;;;;;12.82;9.35;;;;;;;12.71;100.00;101203.91;4973045;28;20058;-84
2022/09/01 05:58:24;;;;;;;13.27;7.43;;;;;;;12.69;100.00;101197.91;4998800;28;20135;-85
2022/09/01 06:00:54;;;;;;;15.93;9.10;;;;;;;12.73;100.00;101203.75;4980912;28;20485;-83
2022/09/01 06:03:21;;;;;;;12.50;9.05;;;;;;;12.75;100.00;101201.81;4964740;28;20145;-84
2022/09/01 06:05:54;;;;;;;15.95;8.93;;;;;;;12.77;100.00;101203.34;4983515;28;20400;-84
2022/09/01 06:08:24;;;;;;;19.25;9.18;;;;;;;12.84;100.00;101198.31;4983216;28;20047;-84
2022/09/01 06:10:51;;;;;;;18.52;8.65;;;;;;;12.86;100.00;101203.47;4972106;28;20485;-83
2022/09/01 06:13:20;;;;;;;18.33;9.07;;;;;;;12.88;100.00;101196.22;4983543;28;20053;-83
2022/09/01 06:15:52;;;;;;;15.95;8.35;;;;;;;12.97;100.00;101200.69;4987223;28;20026;-83
2022/09/01 06:18:20;;;;;;;14.02;8.98;;;;;;;13.03;100.00;101204.56;4993054;28;20041;-83
2022/09/01 06:20:54;;;;;;;13.77;8.47;;;;;;;13.08;100.00;101206.81;4988719;28;20097;-84
2022/09/01 06:23:20;;;;;;;15.02;8.25;;;;;;;13.08;100.00;101204.16;4967615;28;20041;-84
2022/09/01 06:25:46;;;;;;;9.90;8.48;;;;;;;12.99;100.00;101195.25;4985132;28;20397;-84
2022/09/01 06:28:18;;;;;;;11.77;8.38;;;;;;;13.05;100.00;101209.75;4948646;28;20042;-84
2022/09/01 06:30:46;;;;;;;18.63;8.23;;;;;;;13.05;100.00;101205.28;4970208;28;20034;-83
2022/09/01 06:33:12;;;;;;;14.65;8.65;;;;;;;13.05;100.00;101212.41;4994461;28;20081;-85
2022/09/01 06:35:43;;;;;;;16.08;9.13;;;;;;;13.08;100.00;101209.47;4966625;28;20041;-84
2022/09/01 06:38:11;;;;;;;15.27;8.52;;;;;;;13.11;100.00;101212.69;4968683;28;20489;-84
2022/09/01 06:40:41;;;;;;;20.35;8.80;;;;;;;13.12;100.00;101211.69;4967837;28;20065;-83
2022/09/01 06:43:11;;;;;;;13.48;8.15;;;;;;;13.15;100.00;101210.59;4962367;28;20035;-84
2022/09/01 06:45:41;;;;;;;16.38;7.95;;;;;;;13.19;100.00;101222.56;4989932;28;20062;-84
2022/09/01 06:48:08;;;;;;;15.52;7.47;;;;;;;13.21;100.00;101215.31;4982592;28;20413;-84
2022/09/01 06:50:38;;;;;;;16.33;8.07;;;;;;;13.27;100.00;101220.06;5022407;28;20121;-84
2022/09/01 06:53:09;;;;;;;20.42;7.43;;;;;;;13.30;100.00;101216.25;4951447;28;20078;-83
2022/09/01 06:55:40;;;;;;;11.45;7.40;;;;;;;13.32;100.00;101218.78;5022532;28;20034;-83
2022/09/01 06:58:08;;;;;;;15.00;7.32;;;;;;;13.36;100.00;101215.69;4986230;28;20042;-84
2022/09/01 07:00:40;;;;;;;13.35;7.03;;;;;;;13.48;100.00;101212.88;5004620;28;20038;-83
2022/09/01 07:03:10;;;;;;;12.55;7.75;;;;;;;13.58;100.00;101215.53;5020202;28;20035;-83
2022/09/01 07:05:57;;;;;;;15.13;7.13;;;;;;;13.62;100.00;101214.25;4974512;28;20768;-84
2022/09/01 07:08:48;;;;;;;12.65;6.65;;;;;;;13.62;100.00;101222.22;4972997;28;20058;-83
2022/09/01 07:11:29;;;;;;;11.95;6.57;;;;;;;13.58;100.00;101215.53;5004825;28;20539;-84
2022/09/01 07:14:00;;;;;;;19.65;8.65;;;;;;;13.59;100.00;101212.72;4990128;28;20083;-83
2022/09/01 07:16:27;;;;;;;12.60;6.88;;;;;;;13.58;100.00;101211.06;4986156;28;20040;-84
2022/09/01 07:18:57;;;;;;;11.93;7.03;;;;;;;13.66;100.00;101209.50;4966691;28;20520;-85
2022/09/01 07:21:25;;;;;;;12.50;7.00;;;;;;;13.63;100.00;101215.94;4987537;28;20039;-83
2022/09/01 07:23:51;;;;;;;12.88;7.47;;;;;;;13.57;100.00;101214.69;4967671;28;20407;-83
2022/09/01 07:26:18;;;;;;;9.73;6.43;;;;;;;13.59;100.00;101218.03;5002481;28;20039;-82
2022/09/01 07:28:46;;;;;;;9.00;6.50;;;;;;;13.62;100.00;101217.75;5007681;28;20080;-84
2022/09/01 07:31:25;;;;;;;13.88;7.30;;;;;;;13.60;100.00;101219.72;4989170;28;20126;-86
2022/09/01 07:33:57;;;;;;;12.30;6.70;;;;;;;13.58;100.00;101224.34;4974949;28;20070;-85
2022/09/01 07:36:25;;;;;;;11.10;6.45;;;;;;;13.63;100.00;101222.06;4977735;28;20104;-85
2022/09/01 07:38:54;;;;;;;11.95;6.68;;;;;;;13.65;100.00;101221.94;5004061;28;20038;-84
2022/09/01 07:41:23;;;;;;;11.95;6.70;;;;;;;13.67;100.00;101224.44;4984670;28;20030;-84
2022/09/01 07:44:12;;;;;;;9.25;6.13;;;;;;;13.72;100.00;101224.84;4981628;28;20038;-83
2022/09/01 07:47:08;;;;;;;10.50;6.15;;;;;;;13.80;100.00;101227.63;4978775;28;20046;-83
2022/09/01 07:49:36;;;;;;;12.30;6.75;;;;;;;13.83;100.00;101224.66;4989342;28;20560;-84
2022/09/01 07:52:06;;;;;;;12.63;6.40;;;;;;;13.86;100.00;101219.06;4987966;28;20042;-85
2022/09/01 07:54:33;;;;;;;12.18;6.45;;;;;;;13.89;100.00;101225.88;4998264;28;20070;-84
2022/09/01 07:57:00;;;;;;;9.77;5.80;;;;;;;13.94;100.00;101220.13;4967514;28;20512;-81
2022/09/01 07:59:28;;;;;;;14.70;6.95;;;;;;;13.96;100.00;101221.66;4979177;28;20839;-81
2022/09/01 08:02:10;;;;;;;11.27;5.80;;;;;;;14.04;100.00;101218.28;5017649;28;20034;-84
2022/09/01 08:04:38;;;;;;;12.75;5.60;;;;;;;14.09;100.00;101223.13;4986427;28;20042;-81
2022/09/01 08:07:05;;;;;;;10.75;4.78;;;;;;;14.20;100.00;101217.63;5000649;28;20089;-82
2022/09/01 08:09:31;;;;;;;11.18;5.05;;;;;;;14.22;100.00;101220.13;4996346;28;20038;-82
2022/09/01 08:11:57;;;;;;;11.43;4.63;;;;;;;14.27;100.00;101217.84;4964173;28;20042;-83
2022/09/01 08:14:23;;;;;;;14.00;5.43;;;;;;;14.35;100.00;101225.91;4968563;28;20045;-85
2022/09/01 08:16:49;;;;;;;10.65;5.55;;;;;;;14.49;100.00;101227.22;4999768;28;20045;-85
2022/09/01 08:19:17;;;;;;;11.02;5.32;;;;;;;14.61;100.00;101232.31;4992173;28;20038;-83
2022/09/01 08:22:14;;;;;;;9.82;4.20;;;;;;;14.63;100.00;101230.34;4989433;28;20036;-83
2022/09/01 08:24:52;;;;;;;9.40;3.80;;;;;;;14.61;100.00;101233.16;5003511;28;20049;-81
2022/09/01 08:27:18;;;;;;;8.82;3.80;;;;;;;14.59;100.00;101229.81;5007281;28;20107;-84
2022/09/01 08:29:44;;;;;;;8.75;3.97;;;;;;;14.67;100.00;101231.72;5006961;28;20037;-83
2022/09/01 08:32:10;;;;;;;9.75;3.65;;;;;;;14.85;100.00;101229.09;4971418;28;20104;-84
2022/09/01 08:34:36;;;;;;;10.35;3.90;;;;;;;14.95;100.00;101229.00;4974608;28;20515;-84
2022/09/01 08:37:04;;;;;;;13.82;4.43;;;;;;;15.11;100.00;101230.94;4985843;28;20041;-83
2022/09/01 08:39:30;;;;;;;9.25;4.10;;;;;;;15.28;100.00;101225.75;4956621;28;20091;-83
2022/09/01 08:42:20;;;;;;;7.18;3.22;;;;;;;15.34;100.00;101225.13;4987224;28;20048;-85
2022/09/01 08:44:58;;;;;;;13.18;3.35;;;;;;;15.35;100.00;101217.97;4987466;28;20030;-84
2022/09/01 08:47:24;;;;;;;12.38;3.65;;;;;;;15.44;100.00;101224.16;5007666;28;20030;-83
2022/09/01 08:49:50;;;;;;;9.57;3.58;;;;;;;15.48;100.00;101221.03;5007151;28;20468;-83
2022/09/01 08:52:40;;;;;;;7.43;3.40;;;;;;;15.60;100.00;101232.28;5014728;28;20038;-84
2022/09/01 08:55:10;;;;;;;11.38;3.28;;;;;;;15.72;100.00;101219.50;4974532;28;20504;-83
2022/09/01 08:57:50;;;;;;;8.95;3.10;;;;;;;15.76;99.17;101220.00;4970145;28;20038;-83
2022/09/01 09:00:23;;;;;;;7.22;2.80;;;;;;;15.72;98.51;101222.16;5010884;28;20408;-84
2022/09/01 09:03:09;;;;;;;8.65;2.83;;;;;;;15.68;98.68;101210.16;4984712;28;20048;-85
2022/09/01 09:06:13;;;;;;;13.15;3.45;;;;;;;15.73;98.07;101215.84;5001689;28;20077;-83
2022/09/01 09:09:02;;;;;;;6.20;2.83;;;;;;;15.82;97.78;101215.88;4986678;28;20500;-82
2022/09/01 09:11:31;;;;;;;5.30;3.03;;;;;;;15.98;98.04;101213.31;4975458;28;20041;-82
2022/09/01 09:14:10;;;;;;;9.63;2.90;;;;;;;15.96;95.51;101212.59;4970242;28;20046;-84
2022/09/01 09:16:38;;;;;;;8.88;2.97;;;;;;;16.04;95.26;101203.00;4992556;28;20083;-82
2022/09/01 09:19:13;;;;;;;8.25;2.60;;;;;;;16.11;94.31;101204.00;4962087;28;20984;-83
2022/09/01 09:21:41;;;;;;;9.45;2.92;;;;;;;16.16;93.58;101198.19;4980609;28;20037;-86
2022/09/01 09:24:54;;;;;;;7.50;2.67;;;;;;;16.19;92.52;101203.19;4979369;28;20030;-82
2022/09/01 09:27:32;;;;;;;9.27;2.35;;;;;;;16.32;92.72;101198.22;4971165;28;20045;-82
2022/09/01 09:30:07;;;;;;;10.75;2.97;;;;;;;16.55;92.51;101196.72;4991430;28;20080;-83
2022/09/01 09:32:44;;;;;;;6.75;2.22;;;;;;;16.76;89.50;101188.25;4972974;28;20041;-88
2022/09/01 09:35:21;;;;;;;8.45;2.28;;;;;;;16.83;88.37;101189.22;5003821;28;20045;-83
2022/09/01 09:37:51;;;;;;;6.63;2.10;;;;;;;16.93;87.20;101188.25;4985733;28;20172;-85
2022/09/01 09:40:23;;;;;;;5.20;2.22;;;;;;;17.06;86.84;101191.22;4975923;28;20179;-81
2022/09/01 09:42:55;;;;;;;7.22;2.17;;;;;;;17.20;86.49;101180.91;4985792;28;20099;-82
2022/09/01 09:45:26;;;;;;;9.55;2.55;;;;;;;17.36;85.84;101180.00;4960299;28;20405;-84
2022/09/01 09:47:55;;;;;;;14.45;2.58;;;;;;;17.53;85.18;101175.47;5005745;28;20107;-80
2022/09/01 09:50:28;;;;;;;6.80;2.35;;;;;;;17.59;84.37;101166.75;4995515;28;20506;-83
2022/09/01 09:53:15;;;;;;;8.13;2.08;;;;;;;17.68;83.03;101164.00;4999941;28;20042;-82
2022/09/01 09:56:02;;;;;;;14.07;2.03;;;;;;;17.76;81.86;101164.00;4967312;28;20149;-85
2022/09/01 09:58:40;;;;;;;3.83;1.70;;;;;;;17.79;80.01;101155.63;4997360;28;20089;-83
2022/09/01 10:01:27;;;;;;;6.15;1.55;;;;;;;17.82;79.36;101160.63;4981132;28;20651;-81
2022/09/01 10:03:57;;;;;;;5.85;1.50;;;;;;;18.00;78.65;101161.38;4988143;28;20046;-82
2022/09/01 10:06:34;;;;;;;5.00;1.00;;;;;;;18.33;75.97;101158.53;4957824;28;20468;-84
2022/09/01 10:09:05;;;;;;;6.10;1.30;;;;;;;18.41;74.07;101150.41;4968380;28;20496;-79
2022/09/01 10:11:38;;;;;;;3.28;0.93;;;;;;;18.43;73.15;101153.75;4985158;28;20026;-82
2022/09/01 10:14:15;;;;;;;6.65;1.40;;;;;;;18.42;71.73;101149.41;4980531;28;20117;-82
2022/09/01 10:16:42;;;;;;;4.45;1.30;;;;;;;18.45;71.05;101157.09;4978283;28;20034;-80
2022/09/01 10:19:13;;;;;;;4.60;1.30;;;;;;;18.44;69.71;101146.56;4965812;28;20041;-79
2022/09/01 10:21:41;;;;;;;5.25;1.20;;;;;;;18.54;68.88;101143.66;4983127;28;20034;-80
2022/09/01 10:24:19;;;;;;;4.25;1.17;;;;;;;18.70;66.79;101135.44;4983449;28;20034;-80
2022/09/01 10:26:48;;;;;;;2.40;1.17;;;;;;;18.93;66.60;101133.72;4985377;28;20392;-80
2022/09/01 10:29:20;;;;;;;8.32;1.85;;;;;;;19.13;66.40;101117.97;5018866;28;20034;-79
2022/09/01 10:31:46;;;;;;;5.20;1.02;;;;;;;19.31;63.94;101122.97;4983902;28;20034;-80
2022/09/01 10:34:16;;;;;;;3.47;0.93;;;;;;;19.38;61.86;101119.53;4984391;28;20030;-79
2022/09/01 10:36:45;;;;;;;2.20;1.00;;;;;;;19.52;61.36;101125.91;4997935;28;20103;-80
2022/09/01 10:39:13;;;;;;;6.28;0.98;;;;;;;19.63;59.47;101125.41;4977399;28;20585;-81
2022/09/01 10:41:43;;;;;;;4.75;0.85;;;;;;;19.63;56.04;101130.78;5021202;28;20111;-84
2022/09/01 10:44:18;;;;;;;2.88;0.90;;;;;;;19.52;58.33;101131.25;4960608;28;20117;-80
2022/09/01 10:46:45;;;;;;;1.92;0.88;;;;;;;19.37;57.32;101128.56;4995424;28;20034;-78
2022/09/01 10:49:45;;;;;;;6.47;0.98;;;;;;;19.09;55.45;101132.75;5009097;28;20034;-80
2022/09/01 10:52:40;;;;;;;2.80;1.13;;;;;;;18.94;56.34;101119.31;4990632;28;20097;-80
2022/09/01 10:55:21;;;;;;;3.67;0.95;;;;;;;18.89;58.71;101119.88;4991639;28;20529;-80
2022/09/01 10:58:23;;;;;;;3.50;1.00;;;;;;;18.82;57.25;101114.44;5011377;28;20058;-81
2022/09/01 11:00:51;;;;;;;2.28;0.98;;;;;;;18.83;58.81;101116.09;4954424;28;20052;-80
2022/09/01 11:03:17;;;;;;;1.35;1.08;;;;;;;18.92;58.23;101107.97;4967270;28;20045;-81
2022/09/01 11:05:52;;;;;;;6.53;1.20;;;;;;;19.18;56.91;101099.50;4978431;28;20038;-80
2022/09/01 11:08:27;;;;;;;8.65;1.48;;;;;;;19.53;52.95;101100.75;4994080;28;20441;-82
2022/09/01 11:11:11;;;;;;;4.28;0.90;;;;;;;19.53;50.75;101106.09;5017108;28;20030;-80
2022/09/01 11:13:49;;;;;;;3.20;1.02;;;;;;;19.26;53.49;101101.25;4997156;28;20038;-82
2022/09/01 11:16:26;;;;;;;2.67;0.88;;;;;;;18.88;53.81;101106.66;4983615;28;20042;-81
2022/09/01 11:18:53;;;;;;;5.30;0.73;;;;;;;18.65;55.29;101104.88;5015345;28;20073;-81
2022/09/01 11:21:29;;;;;;;1.60;0.90;;;;;;;18.57;53.77;101103.13;4979377;28;20041;-80
2022/09/01 11:24:33;;;;;;;2.40;0.80;;;;;;;18.52;55.18;101100.97;4994211;28;20708;-80
2022/09/01 11:26:58;;;;;;;1.35;0.50;;;;;;;18.69;55.15;101090.97;4966234;28;20037;-85
2022/09/01 11:29:58;;;;;;;2.38;0.77;;;;;;;18.60;52.24;101098.22;4989086;28;20121;-85
2022/09/01 11:32:31;;;;;;;1.52;0.77;;;;;;;18.77;53.78;101090.03;4990249;28;20034;-82
2022/09/01 11:35:00;;;;;;;2.22;0.95;;;;;;;18.95;53.71;101088.84;4994935;28;20038;-82
2022/09/01 11:37:26;;;;;;;2.70;0.73;;;;;;;19.19;53.49;101086.94;4999146;28;20030;-80
2022/09/01 11:39:57;;;;;;;5.35;1.23;;;;;;;19.42;53.19;101092.16;4985519;28;20129;-81
2022/09/01 11:42:34;;;;;;;3.72;0.90;;;;;;;19.61;53.10;101081.03;4990184;28;20042;-81
2022/09/01 11:45:18;;;;;;;2.40;0.88;;;;;;;19.79;51.36;101073.41;4978798;28;20094;-83